createdAt,value
2023-02-14T00:00:00.923Z,1.6
2023-02-14T00:03:01.058Z,1.6
2023-02-14T00:06:00.941Z,1.6
2023-02-14T00:09:00.911Z,1.6
2023-02-14T00:12:00.911Z,1.6
2023-02-14T00:15:00.933Z,1.6
2023-02-14T00:18:01.139Z,1.6
2023-02-14T00:21:01.143Z,1.6
2023-02-14T00:24:00.924Z,1.6
2023-02-14T00:27:00.904Z,1.6
2023-02-14T00:30:01.012Z,1.1
2023-02-14T00:33:00.908Z,1.1
2023-02-14T00:36:00.910Z,1.1
2023-02-14T00:39:00.902Z,1.1
2023-02-14T00:42:00.915Z,1.1
2023-02-14T00:45:01.029Z,1.1
2023-02-14T00:48:00.927Z,1.1
2023-02-14T00:51:01.327Z,1.1
2023-02-14T00:54:00.996Z,1.1
2023-02-14T00:57:00.929Z,1.1
2023-02-14T01:00:00.995Z,1.1
2023-02-14T01:03:00.892Z,1.1
2023-02-14T01:06:00.964Z,1.1
2023-02-14T01:09:00.920Z,1.1
2023-02-14T01:12:00.957Z,1.1
2023-02-14T01:15:00.919Z,1.1
2023-02-14T01:18:00.998Z,1.1
2023-02-14T01:21:01.409Z,1.1
2023-02-14T01:24:00.935Z,1.1
2023-02-14T01:27:00.918Z,1.1
2023-02-14T01:30:01.116Z,1.1
2023-02-14T01:33:00.952Z,1.1
2023-02-14T01:36:00.953Z,1.1
2023-02-14T01:39:00.954Z,1.1
2023-02-14T01:42:00.905Z,1.1
2023-02-14T01:45:00.957Z,1.1
2023-02-14T01:48:00.911Z,1.1
2023-02-14T01:51:01.642Z,1.1
2023-02-14T01:54:00.929Z,1.1
2023-02-14T01:57:00.961Z,1.1
2023-02-14T02:00:00.903Z,1.1
2023-02-14T02:03:00.927Z,1.1
2023-02-14T02:06:00.899Z,1.1
2023-02-14T02:09:00.913Z,1.1
2023-02-14T02:12:00.901Z,1.1
2023-02-14T02:15:00.943Z,0.6
2023-02-14T02:18:00.885Z,0.6
2023-02-14T02:21:01.534Z,0.6
2023-02-14T02:24:00.968Z,0.6
2023-02-14T02:27:00.885Z,0.6
2023-02-14T02:30:01.096Z,0.6
2023-02-14T02:33:00.924Z,0.6
2023-02-14T02:36:00.900Z,0.6
2023-02-14T02:39:00.896Z,0.7
2023-02-14T02:42:00.946Z,0.7
2023-02-14T02:45:00.935Z,0.7
2023-02-14T02:48:00.918Z,0.7
2023-02-14T02:51:01.536Z,0.7
2023-02-14T02:54:00.903Z,0.7
2023-02-14T02:57:00.925Z,0.7
2023-02-14T03:00:00.940Z,0.7
2023-02-14T03:03:00.901Z,0.7
2023-02-14T03:06:00.921Z,0.7
2023-02-14T03:09:00.975Z,0.7
2023-02-14T03:12:01.002Z,0.7
2023-02-14T03:15:00.913Z,0.7
2023-02-14T03:18:00.910Z,0.7
2023-02-14T03:21:01.523Z,0.9
2023-02-14T03:24:00.932Z,0.9
2023-02-14T03:27:00.910Z,0.9
2023-02-14T03:30:01.046Z,0.9
2023-02-14T03:33:00.921Z,0.9
2023-02-14T03:36:00.925Z,0.9
2023-02-14T03:39:00.875Z,0.9
2023-02-14T03:42:00.944Z,0.9
2023-02-14T03:45:00.934Z,0.9
2023-02-14T03:48:00.869Z,0.9
2023-02-14T03:51:01.399Z,0.9
2023-02-14T03:54:00.918Z,0.9
2023-02-14T03:57:00.879Z,0.9
2023-02-14T04:00:00.951Z,0.9
2023-02-14T04:03:00.925Z,0.9
2023-02-14T04:06:00.882Z,0.9
2023-02-14T04:09:00.902Z,0.9
2023-02-14T04:12:00.915Z,1
2023-02-14T04:15:00.898Z,1
2023-02-14T04:18:00.951Z,1
2023-02-14T04:21:01.682Z,1
2023-02-14T04:24:00.928Z,1
2023-02-14T04:27:00.903Z,1
2023-02-14T04:30:01.042Z,1
2023-02-14T04:33:00.958Z,1
2023-02-14T04:36:00.922Z,1
2023-02-14T04:39:00.907Z,1
2023-02-14T04:42:00.929Z,1
2023-02-14T04:45:04.373Z,1
2023-02-14T04:48:00.904Z,1
2023-02-14T04:51:01.566Z,1
2023-02-14T04:54:00.955Z,1
2023-02-14T04:57:00.916Z,0.9
2023-02-14T05:00:00.983Z,0.9
2023-02-14T05:03:00.937Z,0.9
2023-02-14T05:06:00.890Z,0.9
2023-02-14T05:09:00.928Z,0.9
2023-02-14T05:12:00.927Z,0.9
2023-02-14T05:15:00.936Z,0.9
2023-02-14T05:18:00.877Z,0.9
2023-02-14T05:21:01.657Z,0.9
2023-02-14T05:24:00.961Z,0.9
2023-02-14T05:27:00.956Z,0.9
2023-02-14T05:30:01.039Z,0.9
2023-02-14T05:33:00.908Z,0.9
2023-02-14T05:36:00.952Z,0.9
2023-02-14T05:39:00.979Z,0.9
2023-02-14T05:42:00.898Z,0.9
2023-02-14T05:45:00.963Z,0.9
2023-02-14T05:48:00.942Z,0.9
2023-02-14T05:51:01.583Z,0.9
2023-02-14T05:54:00.965Z,0.9
2023-02-14T05:57:00.918Z,0.9
2023-02-14T06:00:01.183Z,0.9
2023-02-14T06:03:00.925Z,0.9
2023-02-14T06:06:00.939Z,0.9
2023-02-14T06:09:00.896Z,0.9
2023-02-14T06:12:00.945Z,0.9
2023-02-14T06:15:00.929Z,0.9
2023-02-14T06:18:00.976Z,0.9
2023-02-14T06:21:01.529Z,0.9
2023-02-14T06:24:00.946Z,0.9
2023-02-14T06:27:00.903Z,0.9
2023-02-14T06:30:01.333Z,0.9
2023-02-14T06:33:00.919Z,0.9
2023-02-14T06:36:00.944Z,0.9
2023-02-14T06:39:00.955Z,0.9
2023-02-14T06:42:00.973Z,0.9
2023-02-14T06:45:00.923Z,0.9
2023-02-14T06:48:01.020Z,0.9
2023-02-14T06:51:01.684Z,0.9
2023-02-14T06:54:00.960Z,0.9
2023-02-14T06:57:01.028Z,0.9
2023-02-14T07:00:00.996Z,0.9
2023-02-14T07:03:01.180Z,0.9
2023-02-14T07:06:00.948Z,0.9
2023-02-14T07:09:00.926Z,1
2023-02-14T07:12:00.951Z,1
2023-02-14T07:15:00.973Z,1
2023-02-14T07:18:00.918Z,1
2023-02-14T07:21:01.766Z,1
2023-02-14T07:24:00.960Z,1
2023-02-14T07:27:00.948Z,1
2023-02-14T07:30:01.090Z,1
2023-02-14T07:33:00.981Z,1
2023-02-14T07:36:00.932Z,1
2023-02-14T07:39:00.947Z,1
2023-02-14T07:42:00.971Z,1
2023-02-14T07:45:20.604Z,1
2023-02-14T07:48:00.942Z,1
2023-02-14T07:51:01.877Z,1
2023-02-14T07:54:00.966Z,1
2023-02-14T07:57:01.000Z,1
2023-02-14T08:00:01.333Z,1
2023-02-14T08:03:00.964Z,1
2023-02-14T08:06:00.944Z,1
2023-02-14T08:09:00.969Z,1
2023-02-14T08:12:00.958Z,1
2023-02-14T08:15:00.930Z,1
2023-02-14T08:18:00.936Z,1
2023-02-14T08:21:01.725Z,1
2023-02-14T08:24:00.975Z,1
2023-02-14T08:27:00.931Z,1
2023-02-14T08:30:01.145Z,1
2023-02-14T08:33:01.040Z,1
2023-02-14T08:36:00.982Z,1
2023-02-14T08:39:00.958Z,1
2023-02-14T08:42:00.948Z,1
2023-02-14T08:45:00.966Z,1
2023-02-14T08:48:01.016Z,1
2023-02-14T08:51:01.546Z,1
2023-02-14T08:54:01.012Z,1
2023-02-14T08:57:01.014Z,1
2023-02-14T09:00:01.010Z,1
2023-02-14T09:03:01.052Z,1
2023-02-14T09:06:00.921Z,1
2023-02-14T09:09:02.840Z,1
2023-02-14T09:12:01.004Z,1
2023-02-14T09:15:00.953Z,1
2023-02-14T09:18:00.944Z,1
2023-02-14T09:21:01.749Z,1
2023-02-14T09:24:00.953Z,1
2023-02-14T09:27:00.927Z,1
2023-02-14T09:30:01.116Z,1
2023-02-14T09:33:00.978Z,1
2023-02-14T09:36:00.996Z,1.6
2023-02-14T09:39:00.967Z,1.6
2023-02-14T09:42:00.904Z,1.6
2023-02-14T09:45:01.288Z,1.6
2023-02-14T09:48:01.000Z,1.6
2023-02-14T09:51:01.625Z,1.6
2023-02-14T09:54:00.934Z,1.6
2023-02-14T09:57:00.989Z,1.6
2023-02-14T10:00:01.026Z,1.6
2023-02-14T10:03:00.986Z,1.6
2023-02-14T10:06:00.998Z,1.6
2023-02-14T10:09:01.141Z,1.6
2023-02-14T10:12:01.064Z,2.1
2023-02-14T10:15:00.968Z,2.1
2023-02-14T10:18:00.972Z,2.1
2023-02-14T10:21:01.773Z,2.1
2023-02-14T10:24:00.995Z,2.1
2023-02-14T10:27:00.956Z,2.1
2023-02-14T10:30:01.073Z,2.4
2023-02-14T10:33:00.997Z,2.4
2023-02-14T10:36:00.993Z,2.4
2023-02-14T10:39:01.190Z,2.4
2023-02-14T10:42:00.989Z,2.4
2023-02-14T10:45:01.012Z,2.4
2023-02-14T10:48:00.947Z,2.4
2023-02-14T10:51:01.731Z,2.4
2023-02-14T10:54:00.980Z,2.4
2023-02-14T10:57:00.939Z,2.9
2023-02-14T11:00:00.968Z,2.9
2023-02-14T11:03:00.968Z,2.9
2023-02-14T11:06:01.007Z,2.9
2023-02-14T11:09:00.968Z,2.9
2023-02-14T11:12:01.020Z,2.9
2023-02-14T11:15:00.917Z,2.9
2023-02-14T11:18:00.937Z,3.4
2023-02-14T11:21:01.047Z,3.4
2023-02-14T11:24:01.021Z,3.4
2023-02-14T11:27:01.030Z,3.4
2023-02-14T11:30:01.074Z,3.4
2023-02-14T11:33:00.928Z,3.4
2023-02-14T11:36:00.993Z,3.4
2023-02-14T11:39:00.920Z,3.9
2023-02-14T11:42:00.985Z,3.9
2023-02-14T11:45:00.905Z,3.9
2023-02-14T11:48:01.090Z,4.2
2023-02-14T11:51:01.525Z,4.2
2023-02-14T11:54:00.989Z,4.2
2023-02-14T11:57:00.942Z,4.2
2023-02-14T12:00:01.032Z,4.2
2023-02-14T12:03:00.961Z,4.2
2023-02-14T12:06:01.059Z,4.2
2023-02-14T12:09:01.071Z,4.2
2023-02-14T12:12:01.082Z,4.7
2023-02-14T12:15:00.934Z,4.7
2023-02-14T12:18:00.966Z,4.7
2023-02-14T12:21:01.615Z,4.7
2023-02-14T12:24:01.541Z,4.7
2023-02-14T12:27:00.972Z,5.1
2023-02-14T12:30:01.156Z,5.1
2023-02-14T12:33:00.964Z,5.1
2023-02-14T12:36:01.010Z,5.1
2023-02-14T12:39:00.979Z,5.1
2023-02-14T12:42:00.990Z,5.1
2023-02-14T12:45:00.950Z,5.1
2023-02-14T12:48:01.003Z,5.1
2023-02-14T12:51:01.791Z,5.1
2023-02-14T12:54:01.042Z,5.6
2023-02-14T12:57:00.924Z,5.6
2023-02-14T13:00:01.059Z,5.6
2023-02-14T13:03:00.988Z,5.6
2023-02-14T13:06:00.935Z,5.6
2023-02-14T13:09:01.010Z,5.6
2023-02-14T13:12:00.965Z,5.7
2023-02-14T13:15:00.956Z,5.7
2023-02-14T13:18:00.955Z,5.7
2023-02-14T13:21:01.631Z,5.7
2023-02-14T13:24:00.972Z,5.7
2023-02-14T13:27:00.971Z,5.7
2023-02-14T13:30:01.118Z,5.7
2023-02-14T13:33:00.969Z,5.7
2023-02-14T13:36:01.501Z,6
2023-02-14T13:39:01.019Z,6
2023-02-14T13:42:00.963Z,6
2023-02-14T13:45:01.016Z,6
2023-02-14T13:48:00.919Z,6
2023-02-14T13:51:01.643Z,6
2023-02-14T13:54:00.918Z,6
2023-02-14T13:57:00.977Z,6
2023-02-14T14:00:00.987Z,6
2023-02-14T14:03:01.061Z,6
2023-02-14T14:06:01.711Z,6
2023-02-14T14:09:01.017Z,6
2023-02-14T14:12:01.074Z,6
2023-02-14T14:15:00.961Z,6
2023-02-14T14:18:00.931Z,6
2023-02-14T14:21:00.955Z,6
2023-02-14T14:24:01.079Z,6
2023-02-14T14:27:00.907Z,6
2023-02-14T14:30:01.042Z,6
2023-02-14T14:33:01.012Z,6
2023-02-14T14:36:01.599Z,6
2023-02-14T14:39:00.944Z,6
2023-02-14T14:42:00.970Z,6
2023-02-14T14:45:00.964Z,6
2023-02-14T14:48:00.984Z,6
2023-02-14T14:51:00.944Z,6
2023-02-14T14:54:00.960Z,6
2023-02-14T14:57:00.953Z,6
2023-02-14T15:00:01.027Z,5.8
2023-02-14T15:03:00.978Z,5.8
2023-02-14T15:06:01.763Z,5.8
2023-02-14T15:09:00.962Z,5.8
2023-02-14T15:12:01.031Z,5.8
2023-02-14T15:15:01.028Z,5.8
2023-02-14T15:18:01.059Z,5.8
2023-02-14T15:21:01.705Z,5.8
2023-02-14T15:24:00.990Z,5.8
2023-02-14T15:27:00.932Z,5.8
2023-02-14T15:30:01.101Z,5.8
2023-02-14T15:33:00.997Z,5.8
2023-02-14T15:36:01.056Z,5.8
2023-02-14T15:39:00.997Z,5.8
2023-02-14T15:42:01.009Z,5.8
2023-02-14T15:45:01.222Z,5.8
2023-02-14T15:48:00.998Z,5.8
2023-02-14T15:51:01.701Z,5.8
2023-02-14T15:54:00.999Z,5.8
2023-02-14T15:57:01.006Z,5.8
2023-02-14T16:00:01.014Z,5.8
2023-02-14T16:03:00.942Z,5.8
2023-02-14T16:06:00.987Z,5.8
2023-02-14T16:09:00.945Z,5.8
2023-02-14T16:12:01.046Z,5.8
2023-02-14T16:15:00.932Z,5.8
2023-02-14T16:18:01.035Z,5.8
2023-02-14T16:21:01.428Z,5.8
2023-02-14T16:24:00.943Z,5.8
2023-02-14T16:27:00.929Z,5.8
2023-02-14T16:30:01.140Z,5.8
2023-02-14T16:33:00.902Z,5.8
2023-02-14T16:36:00.922Z,5.8
2023-02-14T16:39:00.905Z,5.8
2023-02-14T16:42:00.922Z,5.8
2023-02-14T16:45:00.885Z,5.8
2023-02-14T16:48:00.904Z,5.8
2023-02-14T16:51:01.783Z,5.8
2023-02-14T16:54:00.892Z,5.8
2023-02-14T16:57:00.915Z,5.6
2023-02-14T17:00:00.962Z,5.6
2023-02-14T17:03:00.904Z,5.6
2023-02-14T17:06:00.930Z,5.6
2023-02-14T17:09:00.910Z,5.6
2023-02-14T17:12:00.938Z,5.6
2023-02-14T17:15:00.931Z,5.6
2023-02-14T17:18:00.911Z,5.6
2023-02-14T17:21:01.745Z,5.6
2023-02-14T17:24:00.916Z,5.6
2023-02-14T17:27:01.041Z,5.6
2023-02-14T17:30:01.038Z,5.6
2023-02-14T17:33:00.923Z,5.1
2023-02-14T17:36:00.956Z,5.1
2023-02-14T17:39:00.871Z,5.1
2023-02-14T17:42:00.918Z,5.1
2023-02-14T17:45:00.935Z,5.1
2023-02-14T17:48:00.908Z,5.1
2023-02-14T17:51:01.390Z,5.1
2023-02-14T17:54:00.937Z,5.1
2023-02-14T17:57:00.902Z,5.1
2023-02-14T18:00:00.965Z,5.1
2023-02-14T18:03:01.073Z,5.1
2023-02-14T18:06:00.917Z,5.1
2023-02-14T18:09:00.937Z,5.1
2023-02-14T18:12:00.878Z,4.6
2023-02-14T18:15:00.891Z,4.6
2023-02-14T18:18:00.917Z,4.6
2023-02-14T18:21:01.565Z,4.6
2023-02-14T18:24:00.901Z,4.6
2023-02-14T18:27:00.913Z,4.6
2023-02-14T18:30:01.273Z,4.6
2023-02-14T18:33:00.933Z,4.6
2023-02-14T18:36:00.944Z,4.6
2023-02-14T18:39:00.941Z,4.6
2023-02-14T18:42:00.924Z,4.6
2023-02-14T18:45:00.920Z,4.6
2023-02-14T18:48:01.131Z,4.6
2023-02-14T18:51:01.608Z,4.1
2023-02-14T18:54:00.892Z,4.1
2023-02-14T18:57:00.889Z,4.1
2023-02-14T19:00:00.941Z,4.1
2023-02-14T19:03:00.902Z,4.1
2023-02-14T19:06:00.930Z,4.1
2023-02-14T19:09:00.893Z,4.1
2023-02-14T19:12:00.939Z,4.1
2023-02-14T19:15:00.882Z,4.1
2023-02-14T19:18:00.926Z,4.1
2023-02-14T19:21:01.313Z,3.5
2023-02-14T19:24:00.876Z,3.5
2023-02-14T19:27:00.941Z,3.5
2023-02-14T19:30:01.062Z,3.5
2023-02-14T19:33:00.948Z,3.5
2023-02-14T19:36:00.923Z,3.5
2023-02-14T19:39:00.913Z,3.5
2023-02-14T19:42:01.083Z,3.5
2023-02-14T19:45:00.913Z,3.5
2023-02-14T19:48:00.974Z,3.5
2023-02-14T19:51:01.660Z,3
2023-02-14T19:54:00.927Z,3
2023-02-14T19:57:00.910Z,3
2023-02-14T20:00:00.990Z,3
2023-02-14T20:03:00.885Z,3
2023-02-14T20:06:01.009Z,3
2023-02-14T20:09:01.139Z,3
2023-02-14T20:12:00.928Z,3
2023-02-14T20:15:00.934Z,2.8
2023-02-14T20:18:00.886Z,2.8
2023-02-14T20:21:01.828Z,2.8
2023-02-14T20:24:01.023Z,2.8
2023-02-14T20:27:00.927Z,2.8
2023-02-14T20:30:01.093Z,2.8
2023-02-14T20:33:00.914Z,2.8
2023-02-14T20:36:00.967Z,2.8
2023-02-14T20:39:00.931Z,2.8
2023-02-14T20:42:00.898Z,2.8
2023-02-14T20:45:00.911Z,2.8
2023-02-14T20:48:00.867Z,2.8
2023-02-14T20:51:01.580Z,2.3
2023-02-14T20:54:00.948Z,2.3
2023-02-14T20:57:00.942Z,2.3
2023-02-14T21:00:00.990Z,2.3
2023-02-14T21:03:00.926Z,2.3
2023-02-14T21:06:00.917Z,2.3
2023-02-14T21:09:00.893Z,2.1
2023-02-14T21:12:00.954Z,2.1
2023-02-14T21:15:00.936Z,2.1
2023-02-14T21:18:00.923Z,2.1
2023-02-14T21:21:01.625Z,2.1
2023-02-14T21:24:00.922Z,2.1
2023-02-14T21:27:00.931Z,2.1
2023-02-14T21:30:01.127Z,2.1
2023-02-14T21:33:00.901Z,2.1
2023-02-14T21:36:00.986Z,2.1
2023-02-14T21:39:00.939Z,2.1
2023-02-14T21:42:00.905Z,1.6
2023-02-14T21:45:00.927Z,1.6
2023-02-14T21:48:00.899Z,1.6
2023-02-14T21:51:01.316Z,1.6
2023-02-14T21:54:00.918Z,1.6
2023-02-14T21:57:00.914Z,1.6
2023-02-14T22:00:00.966Z,1.6
2023-02-14T22:03:01.089Z,1.6
2023-02-14T22:06:00.931Z,1.6
2023-02-14T22:09:00.902Z,1.6
2023-02-14T22:12:00.971Z,1.6
2023-02-14T22:15:00.953Z,1.6
2023-02-14T22:18:00.928Z,1.6
2023-02-14T22:21:01.409Z,1.6
2023-02-14T22:24:00.927Z,1.6
2023-02-14T22:27:00.967Z,1.6
2023-02-14T22:30:01.199Z,1.6
2023-02-14T22:33:00.963Z,1.6
2023-02-14T22:36:01.483Z,1.6
2023-02-14T22:39:00.900Z,1.6
2023-02-14T22:42:00.929Z,1.6
2023-02-14T22:45:00.950Z,1.6
2023-02-14T22:48:00.909Z,1.6
2023-02-14T22:51:00.919Z,1.6
2023-02-14T22:54:00.931Z,1.6
2023-02-14T22:57:00.918Z,1.6
2023-02-14T23:00:01.936Z,1.6
2023-02-14T23:03:00.960Z,1.6
2023-02-14T23:06:01.585Z,1.6
2023-02-14T23:09:00.967Z,1.6
2023-02-14T23:12:00.915Z,1.6
2023-02-14T23:15:00.889Z,1.6
2023-02-14T23:18:00.946Z,1.6
2023-02-14T23:21:00.927Z,1.6
2023-02-14T23:24:00.918Z,1.6
2023-02-14T23:27:00.949Z,1.1
2023-02-14T23:30:01.125Z,1.1
2023-02-14T23:33:00.906Z,1.1
2023-02-14T23:36:01.337Z,1.1
2023-02-14T23:39:00.910Z,1.1
2023-02-14T23:42:00.952Z,1.1
2023-02-14T23:45:00.972Z,1.1
2023-02-14T23:48:00.948Z,1.1
2023-02-14T23:51:01.030Z,1.1
2023-02-14T23:54:00.935Z,1.1
2023-02-14T23:57:00.969Z,1.1
